sensor_id;sensor_type;location;lat;lon;timestamp;temperature;humidity
43999;DHT22;51319;52.162;5.302;2024-03-17T00:00:32;5.40;95.80
43999;DHT22;51319;52.162;5.302;2024-03-17T00:02:58;5.40;95.70
43999;DHT22;51319;52.162;5.302;2024-03-17T00:05:25;5.30;95.60
43999;DHT22;51319;52.162;5.302;2024-03-17T00:07:51;5.30;95.50
43999;DHT22;51319;52.162;5.302;2024-03-17T00:10:16;5.30;95.40
43999;DHT22;51319;52.162;5.302;2024-03-17T00:12:43;5.30;95.40
43999;DHT22;51319;52.162;5.302;2024-03-17T00:15:09;5.30;95.40
43999;DHT22;51319;52.162;5.302;2024-03-17T00:17:36;5.30;95.40
43999;DHT22;51319;52.162;5.302;2024-03-17T00:20:02;5.40;95.30
43999;DHT22;51319;52.162;5.302;2024-03-17T00:22:35;5.40;95.20
43999;DHT22;51319;52.162;5.302;2024-03-17T00:25:06;5.40;95.20
43999;DHT22;51319;52.162;5.302;2024-03-17T00:27:32;5.40;95.10
43999;DHT22;51319;52.162;5.302;2024-03-17T00:30:00;5.40;95.00
43999;DHT22;51319;52.162;5.302;2024-03-17T00:32:28;5.40;95.00
43999;DHT22;51319;52.162;5.302;2024-03-17T00:34:54;5.40;95.00
43999;DHT22;51319;52.162;5.302;2024-03-17T00:37:20;5.40;95.00
43999;DHT22;51319;52.162;5.302;2024-03-17T00:39:46;5.50;95.00
43999;DHT22;51319;52.162;5.302;2024-03-17T00:42:12;5.50;94.90
43999;DHT22;51319;52.162;5.302;2024-03-17T00:44:38;5.50;94.80
43999;DHT22;51319;52.162;5.302;2024-03-17T00:47:09;5.60;94.70
43999;DHT22;51319;52.162;5.302;2024-03-17T00:49:35;5.60;94.60
43999;DHT22;51319;52.162;5.302;2024-03-17T00:52:01;5.60;94.50
43999;DHT22;51319;52.162;5.302;2024-03-17T00:54:27;5.60;94.50
43999;DHT22;51319;52.162;5.302;2024-03-17T00:57:01;5.50;94.40
43999;DHT22;51319;52.162;5.302;2024-03-17T00:59:27;5.50;94.40
43999;DHT22;51319;52.162;5.302;2024-03-17T01:01:56;5.50;94.40
43999;DHT22;51319;52.162;5.302;2024-03-17T01:04:22;5.50;94.40
43999;DHT22;51319;52.162;5.302;2024-03-17T01:06:48;5.40;94.50
43999;DHT22;51319;52.162;5.302;2024-03-17T01:09:14;5.40;94.80
43999;DHT22;51319;52.162;5.302;2024-03-17T01:11:40;5.50;94.70
43999;DHT22;51319;52.162;5.302;2024-03-17T01:14:06;5.40;94.70
43999;DHT22;51319;52.162;5.302;2024-03-17T01:16:33;5.50;94.70
43999;DHT22;51319;52.162;5.302;2024-03-17T01:18:59;5.50;94.70
43999;DHT22;51319;52.162;5.302;2024-03-17T01:21:25;5.50;94.60
43999;DHT22;51319;52.162;5.302;2024-03-17T01:23:52;5.50;94.50
43999;DHT22;51319;52.162;5.302;2024-03-17T01:26:20;5.60;94.50
43999;DHT22;51319;52.162;5.302;2024-03-17T01:28:46;5.60;94.40
43999;DHT22;51319;52.162;5.302;2024-03-17T01:31:12;5.60;94.40
43999;DHT22;51319;52.162;5.302;2024-03-17T01:33:38;5.60;94.40
43999;DHT22;51319;52.162;5.302;2024-03-17T01:36:06;5.70;94.40
43999;DHT22;51319;52.162;5.302;2024-03-17T01:38:32;5.70;94.40
43999;DHT22;51319;52.162;5.302;2024-03-17T01:40:59;5.70;94.40
43999;DHT22;51319;52.162;5.302;2024-03-17T01:43:26;5.70;94.30
43999;DHT22;51319;52.162;5.302;2024-03-17T01:45:52;5.70;94.30
43999;DHT22;51319;52.162;5.302;2024-03-17T01:48:19;5.70;94.30
43999;DHT22;51319;52.162;5.302;2024-03-17T01:50:48;5.70;94.30
43999;DHT22;51319;52.162;5.302;2024-03-17T01:53:15;5.70;94.30
43999;DHT22;51319;52.162;5.302;2024-03-17T01:55:43;5.60;94.20
43999;DHT22;51319;52.162;5.302;2024-03-17T01:58:10;5.60;94.30
43999;DHT22;51319;52.162;5.302;2024-03-17T02:00:37;5.70;94.40
43999;DHT22;51319;52.162;5.302;2024-03-17T02:03:08;5.70;94.50
43999;DHT22;51319;52.162;5.302;2024-03-17T02:05:35;5.70;94.50
43999;DHT22;51319;52.162;5.302;2024-03-17T02:08:06;5.80;94.50
43999;DHT22;51319;52.162;5.302;2024-03-17T02:10:33;5.80;94.50
43999;DHT22;51319;52.162;5.302;2024-03-17T02:13:00;5.90;94.50
43999;DHT22;51319;52.162;5.302;2024-03-17T02:15:27;5.90;94.40
43999;DHT22;51319;52.162;5.302;2024-03-17T02:17:53;6.00;94.40
43999;DHT22;51319;52.162;5.302;2024-03-17T02:20:19;5.90;94.40
43999;DHT22;51319;52.162;5.302;2024-03-17T02:22:48;6.00;94.40
43999;DHT22;51319;52.162;5.302;2024-03-17T02:25:14;6.00;94.40
43999;DHT22;51319;52.162;5.302;2024-03-17T02:27:40;6.00;94.40
43999;DHT22;51319;52.162;5.302;2024-03-17T02:30:07;6.00;94.50
43999;DHT22;51319;52.162;5.302;2024-03-17T02:32:35;6.00;94.80
43999;DHT22;51319;52.162;5.302;2024-03-17T02:35:01;6.00;94.50
43999;DHT22;51319;52.162;5.302;2024-03-17T02:37:29;6.00;94.50
43999;DHT22;51319;52.162;5.302;2024-03-17T02:39:56;6.00;94.50
43999;DHT22;51319;52.162;5.302;2024-03-17T02:42:22;6.00;94.50
43999;DHT22;51319;52.162;5.302;2024-03-17T02:44:48;6.00;94.50
43999;DHT22;51319;52.162;5.302;2024-03-17T02:47:14;6.10;94.60
43999;DHT22;51319;52.162;5.302;2024-03-17T02:49:40;6.10;94.50
43999;DHT22;51319;52.162;5.302;2024-03-17T02:52:10;6.10;94.50
43999;DHT22;51319;52.162;5.302;2024-03-17T02:54:38;6.20;94.50
43999;DHT22;51319;52.162;5.302;2024-03-17T02:57:05;6.20;94.40
43999;DHT22;51319;52.162;5.302;2024-03-17T02:59:33;6.20;94.40
43999;DHT22;51319;52.162;5.302;2024-03-17T03:01:59;6.30;94.40
43999;DHT22;51319;52.162;5.302;2024-03-17T03:04:26;6.30;94.40
43999;DHT22;51319;52.162;5.302;2024-03-17T03:06:52;6.30;94.40
43999;DHT22;51319;52.162;5.302;2024-03-17T03:09:18;6.30;94.30
43999;DHT22;51319;52.162;5.302;2024-03-17T03:12:05;6.30;94.30
43999;DHT22;51319;52.162;5.302;2024-03-17T03:14:33;6.30;94.30
43999;DHT22;51319;52.162;5.302;2024-03-17T03:17:00;6.30;94.30
43999;DHT22;51319;52.162;5.302;2024-03-17T03:19:26;6.40;94.20
43999;DHT22;51319;52.162;5.302;2024-03-17T03:21:53;6.40;94.20
43999;DHT22;51319;52.162;5.302;2024-03-17T03:24:19;6.40;94.20
43999;DHT22;51319;52.162;5.302;2024-03-17T03:26:45;6.40;94.20
43999;DHT22;51319;52.162;5.302;2024-03-17T03:29:11;6.40;94.20
43999;DHT22;51319;52.162;5.302;2024-03-17T03:31:38;6.40;94.20
43999;DHT22;51319;52.162;5.302;2024-03-17T03:34:07;6.40;94.20
43999;DHT22;51319;52.162;5.302;2024-03-17T03:36:38;6.40;94.20
43999;DHT22;51319;52.162;5.302;2024-03-17T03:39:04;6.40;94.20
43999;DHT22;51319;52.162;5.302;2024-03-17T03:41:31;6.40;94.20
43999;DHT22;51319;52.162;5.302;2024-03-17T03:44:01;6.40;94.20
43999;DHT22;51319;52.162;5.302;2024-03-17T03:46:27;6.40;94.20
43999;DHT22;51319;52.162;5.302;2024-03-17T03:48:53;6.40;94.20
43999;DHT22;51319;52.162;5.302;2024-03-17T03:51:19;6.40;94.30
43999;DHT22;51319;52.162;5.302;2024-03-17T03:53:45;6.40;94.50
43999;DHT22;51319;52.162;5.302;2024-03-17T03:56:12;6.40;94.30
43999;DHT22;51319;52.162;5.302;2024-03-17T03:58:39;6.40;94.40
43999;DHT22;51319;52.162;5.302;2024-03-17T04:01:07;6.40;94.40
43999;DHT22;51319;52.162;5.302;2024-03-17T04:03:34;6.40;94.50
43999;DHT22;51319;52.162;5.302;2024-03-17T04:06:05;6.40;94.60
43999;DHT22;51319;52.162;5.302;2024-03-17T04:08:35;6.40;94.60
43999;DHT22;51319;52.162;5.302;2024-03-17T04:11:02;6.30;94.50
43999;DHT22;51319;52.162;5.302;2024-03-17T04:13:29;6.30;94.50
43999;DHT22;51319;52.162;5.302;2024-03-17T04:15:56;6.30;94.60
43999;DHT22;51319;52.162;5.302;2024-03-17T04:18:24;6.20;94.70
43999;DHT22;51319;52.162;5.302;2024-03-17T04:20:52;6.20;94.70
43999;DHT22;51319;52.162;5.302;2024-03-17T04:23:22;6.20;94.80
43999;DHT22;51319;52.162;5.302;2024-03-17T04:25:52;6.20;94.90
43999;DHT22;51319;52.162;5.302;2024-03-17T04:28:18;6.30;94.90
43999;DHT22;51319;52.162;5.302;2024-03-17T04:30:45;6.30;94.90
43999;DHT22;51319;52.162;5.302;2024-03-17T04:33:15;6.30;95.00
43999;DHT22;51319;52.162;5.302;2024-03-17T04:35:42;6.30;95.00
43999;DHT22;51319;52.162;5.302;2024-03-17T04:38:09;6.30;95.10
43999;DHT22;51319;52.162;5.302;2024-03-17T04:40:40;6.30;95.20
43999;DHT22;51319;52.162;5.302;2024-03-17T04:43:07;6.30;95.20
43999;DHT22;51319;52.162;5.302;2024-03-17T04:45:33;6.30;95.30
43999;DHT22;51319;52.162;5.302;2024-03-17T04:47:59;6.30;95.20
43999;DHT22;51319;52.162;5.302;2024-03-17T04:50:25;6.30;95.30
43999;DHT22;51319;52.162;5.302;2024-03-17T04:52:52;6.30;95.40
43999;DHT22;51319;52.162;5.302;2024-03-17T04:55:18;6.40;95.60
43999;DHT22;51319;52.162;5.302;2024-03-17T04:57:47;6.40;95.60
43999;DHT22;51319;52.162;5.302;2024-03-17T05:00:14;6.40;95.70
43999;DHT22;51319;52.162;5.302;2024-03-17T05:02:40;6.50;95.70
43999;DHT22;51319;52.162;5.302;2024-03-17T05:05:07;6.50;95.70
43999;DHT22;51319;52.162;5.302;2024-03-17T05:07:34;6.50;95.70
43999;DHT22;51319;52.162;5.302;2024-03-17T05:10:01;6.50;95.60
43999;DHT22;51319;52.162;5.302;2024-03-17T05:12:27;6.50;95.60
43999;DHT22;51319;52.162;5.302;2024-03-17T05:14:54;6.50;95.60
43999;DHT22;51319;52.162;5.302;2024-03-17T05:17:20;6.50;95.70
43999;DHT22;51319;52.162;5.302;2024-03-17T05:19:46;6.50;95.70
43999;DHT22;51319;52.162;5.302;2024-03-17T05:22:12;6.40;95.70
43999;DHT22;51319;52.162;5.302;2024-03-17T05:24:38;6.50;95.80
43999;DHT22;51319;52.162;5.302;2024-03-17T05:27:05;6.40;95.80
43999;DHT22;51319;52.162;5.302;2024-03-17T05:29:31;6.40;95.90
43999;DHT22;51319;52.162;5.302;2024-03-17T05:31:57;6.50;95.90
43999;DHT22;51319;52.162;5.302;2024-03-17T05:34:23;6.50;95.90
43999;DHT22;51319;52.162;5.302;2024-03-17T05:36:52;6.50;95.90
43999;DHT22;51319;52.162;5.302;2024-03-17T05:39:18;6.50;95.90
43999;DHT22;51319;52.162;5.302;2024-03-17T05:41:46;6.50;95.90
43999;DHT22;51319;52.162;5.302;2024-03-17T05:44:15;6.50;95.80
43999;DHT22;51319;52.162;5.302;2024-03-17T05:46:45;6.50;95.80
43999;DHT22;51319;52.162;5.302;2024-03-17T05:49:11;6.50;95.80
43999;DHT22;51319;52.162;5.302;2024-03-17T05:51:37;6.50;95.70
43999;DHT22;51319;52.162;5.302;2024-03-17T05:54:04;6.50;95.70
43999;DHT22;51319;52.162;5.302;2024-03-17T05:56:30;6.50;95.70
43999;DHT22;51319;52.162;5.302;2024-03-17T05:58:57;6.40;95.70
43999;DHT22;51319;52.162;5.302;2024-03-17T06:01:24;6.40;95.80
43999;DHT22;51319;52.162;5.302;2024-03-17T06:03:50;6.40;95.80
43999;DHT22;51319;52.162;5.302;2024-03-17T06:06:16;6.40;95.80
43999;DHT22;51319;52.162;5.302;2024-03-17T06:08:42;6.40;95.80
43999;DHT22;51319;52.162;5.302;2024-03-17T06:11:08;6.40;95.90
43999;DHT22;51319;52.162;5.302;2024-03-17T06:13:35;6.40;96.00
43999;DHT22;51319;52.162;5.302;2024-03-17T06:16:04;6.40;96.00
43999;DHT22;51319;52.162;5.302;2024-03-17T06:18:31;6.40;96.10
43999;DHT22;51319;52.162;5.302;2024-03-17T06:20:58;6.50;96.10
43999;DHT22;51319;52.162;5.302;2024-03-17T06:23:26;6.60;96.10
43999;DHT22;51319;52.162;5.302;2024-03-17T06:25:55;6.70;95.90
43999;DHT22;51319;52.162;5.302;2024-03-17T06:28:22;6.70;95.80
43999;DHT22;51319;52.162;5.302;2024-03-17T06:30:58;6.80;95.70
43999;DHT22;51319;52.162;5.302;2024-03-17T06:33:30;6.90;95.60
43999;DHT22;51319;52.162;5.302;2024-03-17T06:35:58;7.00;95.50
43999;DHT22;51319;52.162;5.302;2024-03-17T06:38:24;7.00;95.30
43999;DHT22;51319;52.162;5.302;2024-03-17T06:40:52;7.10;95.20
43999;DHT22;51319;52.162;5.302;2024-03-17T06:43:21;7.20;95.10
43999;DHT22;51319;52.162;5.302;2024-03-17T06:45:58;7.20;95.00
43999;DHT22;51319;52.162;5.302;2024-03-17T06:48:26;7.30;94.90
43999;DHT22;51319;52.162;5.302;2024-03-17T06:50:52;7.40;94.70
43999;DHT22;51319;52.162;5.302;2024-03-17T06:53:23;7.40;94.60
43999;DHT22;51319;52.162;5.302;2024-03-17T06:55:54;7.50;94.50
43999;DHT22;51319;52.162;5.302;2024-03-17T06:58:24;7.50;94.30
43999;DHT22;51319;52.162;5.302;2024-03-17T07:00:55;7.60;94.20
43999;DHT22;51319;52.162;5.302;2024-03-17T07:03:26;7.70;94.10
43999;DHT22;51319;52.162;5.302;2024-03-17T07:05:59;7.80;93.90
43999;DHT22;51319;52.162;5.302;2024-03-17T07:08:28;7.80;93.70
43999;DHT22;51319;52.162;5.302;2024-03-17T07:11:02;7.90;93.60
43999;DHT22;51319;52.162;5.302;2024-03-17T07:13:33;7.90;93.40
43999;DHT22;51319;52.162;5.302;2024-03-17T07:16:00;8.00;93.30
43999;DHT22;51319;52.162;5.302;2024-03-17T07:18:28;8.10;93.10
43999;DHT22;51319;52.162;5.302;2024-03-17T07:21:04;8.20;93.00
43999;DHT22;51319;52.162;5.302;2024-03-17T07:23:31;8.30;92.90
43999;DHT22;51319;52.162;5.302;2024-03-17T07:26:00;8.50;92.60
43999;DHT22;51319;52.162;5.302;2024-03-17T07:28:26;8.60;92.40
43999;DHT22;51319;52.162;5.302;2024-03-17T07:30:55;8.80;92.10
43999;DHT22;51319;52.162;5.302;2024-03-17T07:33:23;9.00;91.90
43999;DHT22;51319;52.162;5.302;2024-03-17T07:35:53;9.10;91.60
43999;DHT22;51319;52.162;5.302;2024-03-17T07:38:24;9.00;91.20
43999;DHT22;51319;52.162;5.302;2024-03-17T07:41:01;9.10;91.10
43999;DHT22;51319;52.162;5.302;2024-03-17T07:43:29;9.10;91.00
43999;DHT22;51319;52.162;5.302;2024-03-17T07:48:25;9.10;91.10
43999;DHT22;51319;52.162;5.302;2024-03-17T07:50:56;9.20;91.10
43999;DHT22;51319;52.162;5.302;2024-03-17T07:53:22;9.30;91.10
43999;DHT22;51319;52.162;5.302;2024-03-17T07:55:57;9.40;90.90
43999;DHT22;51319;52.162;5.302;2024-03-17T07:58:25;9.60;90.70
43999;DHT22;51319;52.162;5.302;2024-03-17T08:00:52;9.70;90.60
43999;DHT22;51319;52.162;5.302;2024-03-17T08:03:19;9.90;90.40
43999;DHT22;51319;52.162;5.302;2024-03-17T08:05:51;10.10;89.90
43999;DHT22;51319;52.162;5.302;2024-03-17T08:08:19;10.40;89.40
43999;DHT22;51319;52.162;5.302;2024-03-17T08:10:45;10.50;88.10
43999;DHT22;51319;52.162;5.302;2024-03-17T08:13:15;10.60;87.50
43999;DHT22;51319;52.162;5.302;2024-03-17T08:15:46;10.60;87.10
43999;DHT22;51319;52.162;5.302;2024-03-17T08:18:13;10.50;86.90
43999;DHT22;51319;52.162;5.302;2024-03-17T08:20:40;10.40;87.00
43999;DHT22;51319;52.162;5.302;2024-03-17T08:23:06;10.40;87.10
43999;DHT22;51319;52.162;5.302;2024-03-17T08:25:33;10.50;87.20
43999;DHT22;51319;52.162;5.302;2024-03-17T08:28:00;10.40;86.90
43999;DHT22;51319;52.162;5.302;2024-03-17T08:30:27;10.40;86.90
43999;DHT22;51319;52.162;5.302;2024-03-17T08:32:55;10.40;86.90
43999;DHT22;51319;52.162;5.302;2024-03-17T08:35:22;10.40;87.10
43999;DHT22;51319;52.162;5.302;2024-03-17T08:37:48;10.30;87.20
43999;DHT22;51319;52.162;5.302;2024-03-17T08:40:17;10.30;86.90
43999;DHT22;51319;52.162;5.302;2024-03-17T08:42:43;10.40;86.80
43999;DHT22;51319;52.162;5.302;2024-03-17T08:45:12;10.50;86.70
43999;DHT22;51319;52.162;5.302;2024-03-17T08:47:39;10.70;86.70
43999;DHT22;51319;52.162;5.302;2024-03-17T08:50:06;10.90;85.70
43999;DHT22;51319;52.162;5.302;2024-03-17T08:52:34;11.00;85.20
43999;DHT22;51319;52.162;5.302;2024-03-17T08:55:00;11.00;84.80
43999;DHT22;51319;52.162;5.302;2024-03-17T08:57:35;11.10;84.60
43999;DHT22;51319;52.162;5.302;2024-03-17T09:00:01;11.20;84.10
43999;DHT22;51319;52.162;5.302;2024-03-17T09:02:27;11.40;84.00
43999;DHT22;51319;52.162;5.302;2024-03-17T09:04:54;11.60;83.40
43999;DHT22;51319;52.162;5.302;2024-03-17T09:07:21;11.90;82.40
43999;DHT22;51319;52.162;5.302;2024-03-17T09:09:48;12.10;81.40
43999;DHT22;51319;52.162;5.302;2024-03-17T09:12:14;12.20;80.20
43999;DHT22;51319;52.162;5.302;2024-03-17T09:14:41;12.10;79.80
43999;DHT22;51319;52.162;5.302;2024-03-17T09:17:07;12.10;79.80
43999;DHT22;51319;52.162;5.302;2024-03-17T09:19:33;12.20;79.90
43999;DHT22;51319;52.162;5.302;2024-03-17T09:22:00;12.20;79.50
43999;DHT22;51319;52.162;5.302;2024-03-17T09:24:26;12.20;79.40
43999;DHT22;51319;52.162;5.302;2024-03-17T09:26:54;12.30;79.30
43999;DHT22;51319;52.162;5.302;2024-03-17T09:29:20;12.30;79.30
43999;DHT22;51319;52.162;5.302;2024-03-17T09:31:46;12.30;79.20
43999;DHT22;51319;52.162;5.302;2024-03-17T09:34:12;12.40;79.20
43999;DHT22;51319;52.162;5.302;2024-03-17T09:36:39;12.40;78.90
43999;DHT22;51319;52.162;5.302;2024-03-17T09:39:07;12.30;78.80
43999;DHT22;51319;52.162;5.302;2024-03-17T09:41:34;12.20;78.70
43999;DHT22;51319;52.162;5.302;2024-03-17T09:44:00;12.30;79.10
43999;DHT22;51319;52.162;5.302;2024-03-17T09:46:28;12.40;79.10
43999;DHT22;51319;52.162;5.302;2024-03-17T09:48:55;12.50;78.70
43999;DHT22;51319;52.162;5.302;2024-03-17T09:51:23;12.70;78.10
43999;DHT22;51319;52.162;5.302;2024-03-17T09:53:50;12.80;77.60
43999;DHT22;51319;52.162;5.302;2024-03-17T09:56:18;13.10;77.10
43999;DHT22;51319;52.162;5.302;2024-03-17T09:58:48;13.30;76.10
43999;DHT22;51319;52.162;5.302;2024-03-17T10:01:15;13.60;75.20
43999;DHT22;51319;52.162;5.302;2024-03-17T10:03:52;13.80;74.80
43999;DHT22;51319;52.162;5.302;2024-03-17T10:06:21;13.90;74.00
43999;DHT22;51319;52.162;5.302;2024-03-17T10:08:52;13.80;73.80
43999;DHT22;51319;52.162;5.302;2024-03-17T10:11:24;13.70;74.10
43999;DHT22;51319;52.162;5.302;2024-03-17T10:14:05;13.70;74.50
43999;DHT22;51319;52.162;5.302;2024-03-17T10:16:32;13.80;74.50
43999;DHT22;51319;52.162;5.302;2024-03-17T10:21:46;13.70;74.20
43999;DHT22;51319;52.162;5.302;2024-03-17T10:24:22;13.90;74.10
43999;DHT22;51319;52.162;5.302;2024-03-17T10:26:50;14.00;74.00
43999;DHT22;51319;52.162;5.302;2024-03-17T10:31:46;14.50;72.70
43999;DHT22;51319;52.162;5.302;2024-03-17T10:34:15;15.10;72.20
43999;DHT22;51319;52.162;5.302;2024-03-17T10:36:46;15.80;69.80
43999;DHT22;51319;52.162;5.302;2024-03-17T10:39:26;17.30;67.50
43999;DHT22;51319;52.162;5.302;2024-03-17T10:42:01;19.10;63.00
43999;DHT22;51319;52.162;5.302;2024-03-17T10:44:31;20.00;58.50
43999;DHT22;51319;52.162;5.302;2024-03-17T10:46:59;21.00;57.90
43999;DHT22;51319;52.162;5.302;2024-03-17T10:49:33;21.50;55.60
43999;DHT22;51319;52.162;5.302;2024-03-17T10:52:03;21.70;52.70
43999;DHT22;51319;52.162;5.302;2024-03-17T10:54:31;21.80;52.40
43999;DHT22;51319;52.162;5.302;2024-03-17T10:59:54;21.90;52.60
43999;DHT22;51319;52.162;5.302;2024-03-17T11:02:23;22.80;52.20
43999;DHT22;51319;52.162;5.302;2024-03-17T11:04:55;23.50;49.80
43999;DHT22;51319;52.162;5.302;2024-03-17T11:07:23;24.00;47.80
43999;DHT22;51319;52.162;5.302;2024-03-17T11:09:51;23.60;47.70
43999;DHT22;51319;52.162;5.302;2024-03-17T11:15:35;22.80;48.20
43999;DHT22;51319;52.162;5.302;2024-03-17T11:20:40;22.70;47.90
43999;DHT22;51319;52.162;5.302;2024-03-17T11:23:07;22.10;48.70
43999;DHT22;51319;52.162;5.302;2024-03-17T11:25:39;21.70;49.50
43999;DHT22;51319;52.162;5.302;2024-03-17T11:28:10;21.40;49.30
43999;DHT22;51319;52.162;5.302;2024-03-17T11:30:49;20.80;50.40
43999;DHT22;51319;52.162;5.302;2024-03-17T11:41:39;18.20;55.00
43999;DHT22;51319;52.162;5.302;2024-03-17T11:47:05;17.20;57.60
43999;DHT22;51319;52.162;5.302;2024-03-17T11:49:41;16.90;58.70
43999;DHT22;51319;52.162;5.302;2024-03-17T11:52:42;16.70;59.50
43999;DHT22;51319;52.162;5.302;2024-03-17T11:55:18;16.50;60.20
43999;DHT22;51319;52.162;5.302;2024-03-17T11:57:45;16.30;60.80
43999;DHT22;51319;52.162;5.302;2024-03-17T12:00:29;16.20;61.20
43999;DHT22;51319;52.162;5.302;2024-03-17T12:02:57;16.00;62.00
43999;DHT22;51319;52.162;5.302;2024-03-17T12:05:25;15.90;62.50
43999;DHT22;51319;52.162;5.302;2024-03-17T12:07:52;15.70;63.20
43999;DHT22;51319;52.162;5.302;2024-03-17T12:10:20;15.60;63.90
43999;DHT22;51319;52.162;5.302;2024-03-17T12:12:47;15.50;64.60
43999;DHT22;51319;52.162;5.302;2024-03-17T12:15:19;15.50;65.20
43999;DHT22;51319;52.162;5.302;2024-03-17T12:17:46;15.50;65.60
43999;DHT22;51319;52.162;5.302;2024-03-17T12:20:20;15.50;65.60
43999;DHT22;51319;52.162;5.302;2024-03-17T12:22:47;15.60;65.80
43999;DHT22;51319;52.162;5.302;2024-03-17T12:25:20;15.60;65.90
43999;DHT22;51319;52.162;5.302;2024-03-17T12:27:47;15.60;66.20
43999;DHT22;51319;52.162;5.302;2024-03-17T12:30:14;15.70;66.30
43999;DHT22;51319;52.162;5.302;2024-03-17T12:32:53;15.80;66.50
43999;DHT22;51319;52.162;5.302;2024-03-17T12:35:21;15.70;65.90
43999;DHT22;51319;52.162;5.302;2024-03-17T12:37:47;15.50;66.20
43999;DHT22;51319;52.162;5.302;2024-03-17T12:40:21;15.50;66.60
43999;DHT22;51319;52.162;5.302;2024-03-17T12:42:49;15.50;66.90
43999;DHT22;51319;52.162;5.302;2024-03-17T12:45:20;15.40;67.10
43999;DHT22;51319;52.162;5.302;2024-03-17T12:47:50;15.40;67.10
43999;DHT22;51319;52.162;5.302;2024-03-17T12:50:16;15.30;67.30
43999;DHT22;51319;52.162;5.302;2024-03-17T12:52:54;15.30;67.30
43999;DHT22;51319;52.162;5.302;2024-03-17T12:55:22;15.20;67.50
43999;DHT22;51319;52.162;5.302;2024-03-17T12:58:08;15.20;67.90
43999;DHT22;51319;52.162;5.302;2024-03-17T13:01:03;15.10;68.00
43999;DHT22;51319;52.162;5.302;2024-03-17T13:06:01;15.10;68.40
43999;DHT22;51319;52.162;5.302;2024-03-17T13:08:36;15.10;68.70
43999;DHT22;51319;52.162;5.302;2024-03-17T13:11:02;15.20;68.80
43999;DHT22;51319;52.162;5.302;2024-03-17T13:13:36;15.20;68.90
43999;DHT22;51319;52.162;5.302;2024-03-17T13:16:02;15.30;69.00
43999;DHT22;51319;52.162;5.302;2024-03-17T13:18:28;15.50;68.80
43999;DHT22;51319;52.162;5.302;2024-03-17T13:20:54;15.50;68.30
43999;DHT22;51319;52.162;5.302;2024-03-17T13:23:23;15.60;68.30
43999;DHT22;51319;52.162;5.302;2024-03-17T13:25:50;15.60;67.90
43999;DHT22;51319;52.162;5.302;2024-03-17T14:55:19;16.10;67.30
43999;DHT22;51319;52.162;5.302;2024-03-17T14:57:47;16.00;67.70
43999;DHT22;51319;52.162;5.302;2024-03-17T15:09:31;15.60;68.80
43999;DHT22;51319;52.162;5.302;2024-03-17T15:11:58;15.50;69.20
43999;DHT22;51319;52.162;5.302;2024-03-17T15:28:06;14.90;71.10
43999;DHT22;51319;52.162;5.302;2024-03-17T15:30:32;14.90;71.30
43999;DHT22;51319;52.162;5.302;2024-03-17T15:38:32;14.90;71.80
43999;DHT22;51319;52.162;5.302;2024-03-17T15:41:09;15.00;71.70
43999;DHT22;51319;52.162;5.302;2024-03-17T15:43:42;15.00;71.80
43999;DHT22;51319;52.162;5.302;2024-03-17T15:46:12;15.00;71.80
43999;DHT22;51319;52.162;5.302;2024-03-17T15:48:39;14.90;71.70
43999;DHT22;51319;52.162;5.302;2024-03-17T15:51:15;14.90;72.00
43999;DHT22;51319;52.162;5.302;2024-03-17T15:56:29;14.70;72.60
43999;DHT22;51319;52.162;5.302;2024-03-17T15:58:55;14.60;72.90
43999;DHT22;51319;52.162;5.302;2024-03-17T16:01:21;14.50;73.30
43999;DHT22;51319;52.162;5.302;2024-03-17T16:03:47;14.50;73.60
43999;DHT22;51319;52.162;5.302;2024-03-17T16:19:59;14.40;76.10
43999;DHT22;51319;52.162;5.302;2024-03-17T16:22:26;14.30;76.50
43999;DHT22;51319;52.162;5.302;2024-03-17T16:24:53;14.30;77.00
43999;DHT22;51319;52.162;5.302;2024-03-17T16:27:20;14.30;77.30
43999;DHT22;51319;52.162;5.302;2024-03-17T16:29:46;14.20;77.10
43999;DHT22;51319;52.162;5.302;2024-03-17T17:10:58;13.20;88.00
43999;DHT22;51319;52.162;5.302;2024-03-17T17:13:24;13.10;88.90
43999;DHT22;51319;52.162;5.302;2024-03-17T17:15:51;13.00;89.80
43999;DHT22;51319;52.162;5.302;2024-03-17T17:40:16;12.50;92.90
43999;DHT22;51319;52.162;5.302;2024-03-17T17:42:43;12.40;93.30
43999;DHT22;51319;52.162;5.302;2024-03-17T17:45:21;12.40;93.80
43999;DHT22;51319;52.162;5.302;2024-03-17T17:47:47;12.30;94.30
43999;DHT22;51319;52.162;5.302;2024-03-17T17:50:14;12.30;94.60
43999;DHT22;51319;52.162;5.302;2024-03-17T17:52:40;12.20;95.00
43999;DHT22;51319;52.162;5.302;2024-03-17T17:55:06;12.10;95.30
43999;DHT22;51319;52.162;5.302;2024-03-17T17:57:33;12.10;95.80
43999;DHT22;51319;52.162;5.302;2024-03-17T17:59:59;12.10;96.20
43999;DHT22;51319;52.162;5.302;2024-03-17T18:02:25;12.00;96.60
43999;DHT22;51319;52.162;5.302;2024-03-17T18:04:52;12.00;97.00
43999;DHT22;51319;52.162;5.302;2024-03-17T18:07:19;12.00;97.40
43999;DHT22;51319;52.162;5.302;2024-03-17T18:09:45;12.00;97.80
43999;DHT22;51319;52.162;5.302;2024-03-17T18:12:12;12.00;98.10
43999;DHT22;51319;52.162;5.302;2024-03-17T18:14:40;12.00;98.20
43999;DHT22;51319;52.162;5.302;2024-03-17T18:25:14;11.90;99.30
43999;DHT22;51319;52.162;5.302;2024-03-17T18:27:40;11.80;99.80
43999;DHT22;51319;52.162;5.302;2024-03-17T18:30:07;11.70;99.90
43999;DHT22;51319;52.162;5.302;2024-03-17T18:32:33;11.70;99.90
43999;DHT22;51319;52.162;5.302;2024-03-17T18:34:59;11.60;99.90
43999;DHT22;51319;52.162;5.302;2024-03-17T18:37:28;11.60;99.90
43999;DHT22;51319;52.162;5.302;2024-03-17T18:39:54;11.60;99.90
43999;DHT22;51319;52.162;5.302;2024-03-17T18:42:23;11.50;99.90
43999;DHT22;51319;52.162;5.302;2024-03-17T18:44:52;11.50;99.90
43999;DHT22;51319;52.162;5.302;2024-03-17T19:01:08;11.40;99.90
43999;DHT22;51319;52.162;5.302;2024-03-17T19:03:35;11.30;99.90
43999;DHT22;51319;52.162;5.302;2024-03-17T19:06:11;11.30;99.90
43999;DHT22;51319;52.162;5.302;2024-03-17T19:11:31;11.30;99.90
43999;DHT22;51319;52.162;5.302;2024-03-17T20:19:54;10.90;99.90
43999;DHT22;51319;52.162;5.302;2024-03-17T20:22:33;10.90;99.90
43999;DHT22;51319;52.162;5.302;2024-03-17T20:25:14;10.80;99.90
43999;DHT22;51319;52.162;5.302;2024-03-17T20:27:44;10.90;99.90
43999;DHT22;51319;52.162;5.302;2024-03-17T20:30:10;10.90;99.90
43999;DHT22;51319;52.162;5.302;2024-03-17T20:32:37;10.90;99.90
43999;DHT22;51319;52.162;5.302;2024-03-17T20:35:04;10.90;99.90
43999;DHT22;51319;52.162;5.302;2024-03-17T20:37:35;10.90;99.90
43999;DHT22;51319;52.162;5.302;2024-03-17T20:40:02;10.90;99.90
43999;DHT22;51319;52.162;5.302;2024-03-17T20:42:29;10.90;99.90
43999;DHT22;51319;52.162;5.302;2024-03-17T20:44:56;10.90;99.90
43999;DHT22;51319;52.162;5.302;2024-03-17T20:47:22;10.90;99.90
43999;DHT22;51319;52.162;5.302;2024-03-17T20:49:51;10.90;99.90
43999;DHT22;51319;52.162;5.302;2024-03-17T20:52:18;10.90;99.90
43999;DHT22;51319;52.162;5.302;2024-03-17T20:54:44;10.90;99.90
43999;DHT22;51319;52.162;5.302;2024-03-17T20:57:10;10.90;99.90